Terminal Aerodrome Forecast
Issued by NWS Des Moines, IA

Home | Current Version | Previous Version | Text Only | Print | Product List | Glossary On
Versions: 1 2 3 4 5 6 7 8 9 10 11 12 13 14 15 16 17 18 19 20 21 22 23 24 25 26 27 28 29 30 31 32 33 34 35 36 37 38 39
000
FTUS43 KDMX 290301 AAB
TAFDSM
TAF AMD
KDSM 290301Z 2903/2924 28010KT 5SM TSRA SCT005 BKN010 OVC025CB
     FM290800 17007KT 5SM BR SCT025 BKN150
     FM291500 20010KT P6SM BKN035
     FM291900 20009KT P6SM VCSH BKN040=

USA.gov is the U.S. government's official web portal to all federal, state and local government web resources and services.